sensor_id;sensor_type;location;lat;lon;timestamp;P1;durP1;ratioP1;P2;durP2;ratioP2
68680;SDS011;55836;49.858;6.756;2023-04-24T00:00:56;2.20;;;0.90;;
68680;SDS011;55836;49.858;6.756;2023-04-24T00:03:22;1.00;;;0.90;;
68680;SDS011;55836;49.858;6.756;2023-04-24T00:05:49;0.77;;;0.77;;
68680;SDS011;55836;49.858;6.756;2023-04-24T00:08:16;1.77;;;0.80;;
68680;SDS011;55836;49.858;6.756;2023-04-24T00:10:42;1.13;;;1.00;;
68680;SDS011;55836;49.858;6.756;2023-04-24T00:13:08;1.70;;;0.70;;
68680;SDS011;55836;49.858;6.756;2023-04-24T00:15:34;1.67;;;0.80;;
68680;SDS011;55836;49.858;6.756;2023-04-24T00:18:00;0.73;;;0.73;;
68680;SDS011;55836;49.858;6.756;2023-04-24T00:20:26;0.77;;;0.70;;
68680;SDS011;55836;49.858;6.756;2023-04-24T00:22:57;0.90;;;0.80;;
68680;SDS011;55836;49.858;6.756;2023-04-24T00:25:23;2.03;;;0.77;;
68680;SDS011;55836;49.858;6.756;2023-04-24T00:27:49;1.10;;;0.73;;
68680;SDS011;55836;49.858;6.756;2023-04-24T00:30:15;2.20;;;0.80;;
68680;SDS011;55836;49.858;6.756;2023-04-24T00:32:42;1.20;;;0.83;;
68680;SDS011;55836;49.858;6.756;2023-04-24T00:35:08;2.40;;;0.80;;
68680;SDS011;55836;49.858;6.756;2023-04-24T00:37:35;1.00;;;0.90;;
68680;SDS011;55836;49.858;6.756;2023-04-24T00:40:01;1.60;;;0.93;;
68680;SDS011;55836;49.858;6.756;2023-04-24T00:42:28;2.30;;;0.97;;
68680;SDS011;55836;49.858;6.756;2023-04-24T00:44:54;0.93;;;0.87;;
68680;SDS011;55836;49.858;6.756;2023-04-24T00:47:21;4.00;;;1.17;;
68680;SDS011;55836;49.858;6.756;2023-04-24T00:49:47;0.90;;;0.90;;
68680;SDS011;55836;49.858;6.756;2023-04-24T00:52:13;2.17;;;0.90;;
68680;SDS011;55836;49.858;6.756;2023-04-24T00:54:43;1.63;;;1.20;;
68680;SDS011;55836;49.858;6.756;2023-04-24T00:57:10;4.47;;;0.97;;
68680;SDS011;55836;49.858;6.756;2023-04-24T00:59:36;0.80;;;0.80;;
68680;SDS011;55836;49.858;6.756;2023-04-24T01:02:02;1.00;;;0.90;;
68680;SDS011;55836;49.858;6.756;2023-04-24T01:04:28;2.40;;;0.90;;
68680;SDS011;55836;49.858;6.756;2023-04-24T01:06:54;1.70;;;1.10;;
68680;SDS011;55836;49.858;6.756;2023-04-24T01:09:21;0.90;;;0.90;;
68680;SDS011;55836;49.858;6.756;2023-04-24T01:11:49;1.20;;;1.10;;
68680;SDS011;55836;49.858;6.756;2023-04-24T01:14:15;1.87;;;1.17;;
68680;SDS011;55836;49.858;6.756;2023-04-24T01:16:41;2.70;;;1.40;;
68680;SDS011;55836;49.858;6.756;2023-04-24T01:19:07;1.50;;;1.40;;
68680;SDS011;55836;49.858;6.756;2023-04-24T01:21:34;1.53;;;1.30;;
68680;SDS011;55836;49.858;6.756;2023-04-24T01:24:02;1.50;;;1.40;;
68680;SDS011;55836;49.858;6.756;2023-04-24T01:26:28;2.17;;;1.80;;
68680;SDS011;55836;49.858;6.756;2023-04-24T01:28:54;2.20;;;2.00;;
68680;SDS011;55836;49.858;6.756;2023-04-24T01:31:20;2.43;;;2.23;;
68680;SDS011;55836;49.858;6.756;2023-04-24T01:33:46;2.70;;;2.50;;
68680;SDS011;55836;49.858;6.756;2023-04-24T01:36:13;2.47;;;2.20;;
68680;SDS011;55836;49.858;6.756;2023-04-24T01:38:39;3.07;;;2.40;;
68680;SDS011;55836;49.858;6.756;2023-04-24T01:41:05;3.47;;;2.50;;
68680;SDS011;55836;49.858;6.756;2023-04-24T01:43:31;3.53;;;2.73;;
68680;SDS011;55836;49.858;6.756;2023-04-24T01:45:57;3.07;;;2.77;;
68680;SDS011;55836;49.858;6.756;2023-04-24T01:48:23;3.07;;;2.87;;
68680;SDS011;55836;49.858;6.756;2023-04-24T01:50:50;4.03;;;3.10;;
68680;SDS011;55836;49.858;6.756;2023-04-24T01:53:16;4.63;;;2.83;;
68680;SDS011;55836;49.858;6.756;2023-04-24T01:55:42;4.47;;;2.33;;
68680;SDS011;55836;49.858;6.756;2023-04-24T01:58:08;6.00;;;2.60;;
68680;SDS011;55836;49.858;6.756;2023-04-24T02:00:34;4.00;;;3.20;;
68680;SDS011;55836;49.858;6.756;2023-04-24T02:03:00;3.23;;;2.53;;
68680;SDS011;55836;49.858;6.756;2023-04-24T02:05:27;5.80;;;3.13;;
68680;SDS011;55836;49.858;6.756;2023-04-24T02:07:53;6.43;;;2.63;;
68680;SDS011;55836;49.858;6.756;2023-04-24T02:10:19;3.03;;;2.70;;
68680;SDS011;55836;49.858;6.756;2023-04-24T02:12:45;3.43;;;2.87;;
68680;SDS011;55836;49.858;6.756;2023-04-24T02:15:11;3.53;;;3.20;;
68680;SDS011;55836;49.858;6.756;2023-04-24T02:17:37;4.27;;;3.10;;
68680;SDS011;55836;49.858;6.756;2023-04-24T02:20:03;5.37;;;3.50;;
68680;SDS011;55836;49.858;6.756;2023-04-24T02:22:30;4.00;;;3.20;;
68680;SDS011;55836;49.858;6.756;2023-04-24T02:24:56;5.00;;;3.80;;
68680;SDS011;55836;49.858;6.756;2023-04-24T02:27:22;5.03;;;4.10;;
68680;SDS011;55836;49.858;6.756;2023-04-24T02:29:48;4.20;;;3.80;;
68680;SDS011;55836;49.858;6.756;2023-04-24T02:32:14;4.27;;;3.63;;
68680;SDS011;55836;49.858;6.756;2023-04-24T02:34:40;4.10;;;3.70;;
68680;SDS011;55836;49.858;6.756;2023-04-24T02:37:06;9.10;;;3.23;;
68680;SDS011;55836;49.858;6.756;2023-04-24T02:39:32;10.37;;;4.87;;
68680;SDS011;55836;49.858;6.756;2023-04-24T02:41:59;5.17;;;4.30;;
68680;SDS011;55836;49.858;6.756;2023-04-24T02:44:25;6.27;;;4.47;;
68680;SDS011;55836;49.858;6.756;2023-04-24T02:46:51;6.27;;;4.47;;
68680;SDS011;55836;49.858;6.756;2023-04-24T02:49:17;5.13;;;4.17;;
68680;SDS011;55836;49.858;6.756;2023-04-24T02:51:43;4.43;;;3.90;;
68680;SDS011;55836;49.858;6.756;2023-04-24T02:54:09;4.43;;;4.00;;
68680;SDS011;55836;49.858;6.756;2023-04-24T02:56:36;10.00;;;4.87;;
68680;SDS011;55836;49.858;6.756;2023-04-24T02:59:02;6.87;;;5.23;;
68680;SDS011;55836;49.858;6.756;2023-04-24T03:01:28;6.10;;;4.73;;
68680;SDS011;55836;49.858;6.756;2023-04-24T03:03:54;6.10;;;4.57;;
68680;SDS011;55836;49.858;6.756;2023-04-24T03:06:20;6.67;;;3.90;;
68680;SDS011;55836;49.858;6.756;2023-04-24T03:08:46;6.87;;;4.97;;
68680;SDS011;55836;49.858;6.756;2023-04-24T03:11:12;5.97;;;5.10;;
68680;SDS011;55836;49.858;6.756;2023-04-24T03:13:38;7.50;;;5.00;;
68680;SDS011;55836;49.858;6.756;2023-04-24T03:16:04;5.60;;;4.63;;
68680;SDS011;55836;49.858;6.756;2023-04-24T03:18:30;7.93;;;4.87;;
68680;SDS011;55836;49.858;6.756;2023-04-24T03:20:56;6.70;;;5.13;;
68680;SDS011;55836;49.858;6.756;2023-04-24T03:23:22;8.47;;;5.90;;
68680;SDS011;55836;49.858;6.756;2023-04-24T03:25:48;8.17;;;4.77;;
68680;SDS011;55836;49.858;6.756;2023-04-24T03:28:14;5.70;;;5.20;;
68680;SDS011;55836;49.858;6.756;2023-04-24T03:30:40;6.80;;;5.60;;
68680;SDS011;55836;49.858;6.756;2023-04-24T03:33:07;7.90;;;5.37;;
68680;SDS011;55836;49.858;6.756;2023-04-24T03:35:33;6.07;;;4.80;;
68680;SDS011;55836;49.858;6.756;2023-04-24T03:37:59;9.33;;;5.50;;
68680;SDS011;55836;49.858;6.756;2023-04-24T03:40:25;6.63;;;5.53;;
68680;SDS011;55836;49.858;6.756;2023-04-24T03:42:51;8.47;;;5.50;;
68680;SDS011;55836;49.858;6.756;2023-04-24T03:45:17;7.53;;;6.00;;
68680;SDS011;55836;49.858;6.756;2023-04-24T03:47:43;7.10;;;5.53;;
68680;SDS011;55836;49.858;6.756;2023-04-24T03:50:09;7.57;;;6.30;;
68680;SDS011;55836;49.858;6.756;2023-04-24T03:52:35;6.77;;;5.40;;
68680;SDS011;55836;49.858;6.756;2023-04-24T03:55:01;6.93;;;6.17;;
68680;SDS011;55836;49.858;6.756;2023-04-24T03:57:27;7.20;;;5.40;;
68680;SDS011;55836;49.858;6.756;2023-04-24T03:59:54;8.50;;;5.63;;
68680;SDS011;55836;49.858;6.756;2023-04-24T04:02:20;10.20;;;5.60;;
68680;SDS011;55836;49.858;6.756;2023-04-24T04:04:46;6.00;;;5.40;;
68680;SDS011;55836;49.858;6.756;2023-04-24T04:07:12;7.80;;;6.13;;
68680;SDS011;55836;49.858;6.756;2023-04-24T04:09:38;9.10;;;6.83;;
68680;SDS011;55836;49.858;6.756;2023-04-24T04:12:04;8.27;;;6.50;;
68680;SDS011;55836;49.858;6.756;2023-04-24T04:14:30;9.70;;;6.43;;
68680;SDS011;55836;49.858;6.756;2023-04-24T04:16:56;8.17;;;6.53;;
68680;SDS011;55836;49.858;6.756;2023-04-24T04:19:22;8.83;;;7.03;;
68680;SDS011;55836;49.858;6.756;2023-04-24T04:21:48;8.70;;;6.97;;
68680;SDS011;55836;49.858;6.756;2023-04-24T04:24:18;10.27;;;7.07;;
68680;SDS011;55836;49.858;6.756;2023-04-24T04:26:45;8.17;;;6.67;;
68680;SDS011;55836;49.858;6.756;2023-04-24T04:29:12;11.57;;;7.27;;
68680;SDS011;55836;49.858;6.756;2023-04-24T04:31:38;8.37;;;7.17;;
68680;SDS011;55836;49.858;6.756;2023-04-24T04:34:04;8.13;;;7.33;;
68680;SDS011;55836;49.858;6.756;2023-04-24T04:36:30;8.87;;;7.27;;
68680;SDS011;55836;49.858;6.756;2023-04-24T04:38:57;10.83;;;7.70;;
68680;SDS011;55836;49.858;6.756;2023-04-24T04:41:24;10.80;;;8.07;;
68680;SDS011;55836;49.858;6.756;2023-04-24T04:43:51;9.97;;;7.13;;
68680;SDS011;55836;49.858;6.756;2023-04-24T04:46:17;11.40;;;7.53;;
68680;SDS011;55836;49.858;6.756;2023-04-24T04:48:43;9.93;;;8.07;;
68680;SDS011;55836;49.858;6.756;2023-04-24T04:51:10;11.87;;;8.23;;
68680;SDS011;55836;49.858;6.756;2023-04-24T04:53:36;8.97;;;8.07;;
68680;SDS011;55836;49.858;6.756;2023-04-24T04:56:02;9.87;;;8.57;;
68680;SDS011;55836;49.858;6.756;2023-04-24T04:58:28;9.90;;;8.23;;
68680;SDS011;55836;49.858;6.756;2023-04-24T05:00:55;11.37;;;9.07;;
68680;SDS011;55836;49.858;6.756;2023-04-24T05:03:22;12.37;;;9.10;;
68680;SDS011;55836;49.858;6.756;2023-04-24T05:05:48;13.47;;;10.03;;
68680;SDS011;55836;49.858;6.756;2023-04-24T05:08:14;10.63;;;9.03;;
68680;SDS011;55836;49.858;6.756;2023-04-24T05:10:40;12.13;;;9.13;;
68680;SDS011;55836;49.858;6.756;2023-04-24T05:13:06;11.73;;;8.63;;
68680;SDS011;55836;49.858;6.756;2023-04-24T05:15:32;10.40;;;9.20;;
68680;SDS011;55836;49.858;6.756;2023-04-24T05:17:58;12.27;;;9.70;;
68680;SDS011;55836;49.858;6.756;2023-04-24T05:20:24;14.40;;;10.00;;
68680;SDS011;55836;49.858;6.756;2023-04-24T05:22:50;11.07;;;8.83;;
68680;SDS011;55836;49.858;6.756;2023-04-24T05:25:16;11.67;;;9.57;;
68680;SDS011;55836;49.858;6.756;2023-04-24T05:27:42;12.03;;;8.97;;
68680;SDS011;55836;49.858;6.756;2023-04-24T05:30:09;14.20;;;9.50;;
68680;SDS011;55836;49.858;6.756;2023-04-24T05:32:35;10.40;;;9.13;;
68680;SDS011;55836;49.858;6.756;2023-04-24T05:35:01;10.80;;;8.43;;
68680;SDS011;55836;49.858;6.756;2023-04-24T05:37:27;11.73;;;9.23;;
68680;SDS011;55836;49.858;6.756;2023-04-24T05:39:53;12.73;;;8.67;;
68680;SDS011;55836;49.858;6.756;2023-04-24T05:42:19;11.73;;;9.23;;
68680;SDS011;55836;49.858;6.756;2023-04-24T05:44:45;13.10;;;9.43;;
68680;SDS011;55836;49.858;6.756;2023-04-24T05:47:11;12.13;;;9.43;;
68680;SDS011;55836;49.858;6.756;2023-04-24T05:49:37;18.03;;;10.07;;
68680;SDS011;55836;49.858;6.756;2023-04-24T05:52:03;11.17;;;8.33;;
68680;SDS011;55836;49.858;6.756;2023-04-24T05:54:31;10.10;;;8.13;;
68680;SDS011;55836;49.858;6.756;2023-04-24T05:56:57;8.60;;;7.30;;
68680;SDS011;55836;49.858;6.756;2023-04-24T05:59:23;9.30;;;6.67;;
68680;SDS011;55836;49.858;6.756;2023-04-24T06:01:49;6.90;;;6.20;;
68680;SDS011;55836;49.858;6.756;2023-04-24T06:04:15;9.77;;;6.20;;
68680;SDS011;55836;49.858;6.756;2023-04-24T06:06:41;8.53;;;6.43;;
68680;SDS011;55836;49.858;6.756;2023-04-24T06:09:07;11.53;;;9.47;;
68680;SDS011;55836;49.858;6.756;2023-04-24T06:11:33;7.50;;;6.13;;
68680;SDS011;55836;49.858;6.756;2023-04-24T06:13:59;7.20;;;5.97;;
68680;SDS011;55836;49.858;6.756;2023-04-24T06:16:26;8.47;;;6.03;;
68680;SDS011;55836;49.858;6.756;2023-04-24T06:18:51;8.33;;;5.50;;
68680;SDS011;55836;49.858;6.756;2023-04-24T06:21:17;6.33;;;5.63;;
68680;SDS011;55836;49.858;6.756;2023-04-24T06:23:43;6.17;;;5.53;;
68680;SDS011;55836;49.858;6.756;2023-04-24T06:26:11;6.57;;;5.43;;
68680;SDS011;55836;49.858;6.756;2023-04-24T06:28:37;8.27;;;5.20;;
68680;SDS011;55836;49.858;6.756;2023-04-24T06:31:03;7.03;;;6.03;;
68680;SDS011;55836;49.858;6.756;2023-04-24T06:33:29;9.07;;;5.80;;
68680;SDS011;55836;49.858;6.756;2023-04-24T06:35:55;7.07;;;5.07;;
68680;SDS011;55836;49.858;6.756;2023-04-24T06:38:21;5.70;;;5.10;;
68680;SDS011;55836;49.858;6.756;2023-04-24T06:40:47;6.13;;;5.10;;
68680;SDS011;55836;49.858;6.756;2023-04-24T06:43:13;6.83;;;5.17;;
68680;SDS011;55836;49.858;6.756;2023-04-24T06:45:40;6.43;;;5.33;;
68680;SDS011;55836;49.858;6.756;2023-04-24T06:48:06;5.93;;;5.17;;
68680;SDS011;55836;49.858;6.756;2023-04-24T06:50:32;7.80;;;6.57;;
68680;SDS011;55836;49.858;6.756;2023-04-24T06:52:57;6.50;;;5.70;;
68680;SDS011;55836;49.858;6.756;2023-04-24T06:55:23;7.83;;;5.60;;
68680;SDS011;55836;49.858;6.756;2023-04-24T06:57:50;8.50;;;5.93;;
68680;SDS011;55836;49.858;6.756;2023-04-24T07:00:16;8.03;;;6.13;;
68680;SDS011;55836;49.858;6.756;2023-04-24T07:02:42;7.23;;;6.17;;
68680;SDS011;55836;49.858;6.756;2023-04-24T07:05:08;8.83;;;6.93;;
68680;SDS011;55836;49.858;6.756;2023-04-24T07:07:34;10.43;;;7.30;;
68680;SDS011;55836;49.858;6.756;2023-04-24T07:10:03;8.87;;;6.60;;
68680;SDS011;55836;49.858;6.756;2023-04-24T07:12:29;8.63;;;6.10;;
68680;SDS011;55836;49.858;6.756;2023-04-24T07:14:55;10.27;;;6.60;;
68680;SDS011;55836;49.858;6.756;2023-04-24T07:17:21;10.83;;;6.33;;
68680;SDS011;55836;49.858;6.756;2023-04-24T07:19:47;8.53;;;6.03;;
68680;SDS011;55836;49.858;6.756;2023-04-24T07:22:13;6.83;;;6.00;;
68680;SDS011;55836;49.858;6.756;2023-04-24T07:24:42;7.60;;;6.40;;
68680;SDS011;55836;49.858;6.756;2023-04-24T07:27:08;6.93;;;5.73;;
68680;SDS011;55836;49.858;6.756;2023-04-24T07:29:34;6.93;;;6.00;;
68680;SDS011;55836;49.858;6.756;2023-04-24T07:32:00;6.23;;;5.63;;
68680;SDS011;55836;49.858;6.756;2023-04-24T07:34:26;6.40;;;5.70;;
68680;SDS011;55836;49.858;6.756;2023-04-24T07:36:52;6.63;;;5.90;;
68680;SDS011;55836;49.858;6.756;2023-04-24T07:39:18;7.27;;;6.07;;
68680;SDS011;55836;49.858;6.756;2023-04-24T07:41:45;7.50;;;5.63;;
68680;SDS011;55836;49.858;6.756;2023-04-24T07:44:11;12.07;;;6.33;;
68680;SDS011;55836;49.858;6.756;2023-04-24T07:46:37;7.50;;;6.17;;
68680;SDS011;55836;49.858;6.756;2023-04-24T07:49:03;7.00;;;6.23;;
68680;SDS011;55836;49.858;6.756;2023-04-24T07:51:30;10.87;;;5.63;;
68680;SDS011;55836;49.858;6.756;2023-04-24T07:53:57;8.27;;;6.10;;
68680;SDS011;55836;49.858;6.756;2023-04-24T07:56:23;7.17;;;6.00;;
68680;SDS011;55836;49.858;6.756;2023-04-24T07:58:50;7.40;;;6.63;;
68680;SDS011;55836;49.858;6.756;2023-04-24T08:01:16;8.10;;;6.40;;
68680;SDS011;55836;49.858;6.756;2023-04-24T08:03:42;12.33;;;8.07;;
68680;SDS011;55836;49.858;6.756;2023-04-24T08:06:08;10.93;;;6.40;;
68680;SDS011;55836;49.858;6.756;2023-04-24T08:08:34;12.17;;;7.00;;
68680;SDS011;55836;49.858;6.756;2023-04-24T08:11:00;7.97;;;6.47;;
68680;SDS011;55836;49.858;6.756;2023-04-24T08:13:26;10.37;;;7.27;;
68680;SDS011;55836;49.858;6.756;2023-04-24T08:15:52;7.23;;;6.53;;
68680;SDS011;55836;49.858;6.756;2023-04-24T08:18:18;9.80;;;6.20;;
68680;SDS011;55836;49.858;6.756;2023-04-24T08:20:44;9.30;;;6.83;;
68680;SDS011;55836;49.858;6.756;2023-04-24T08:23:10;7.60;;;6.47;;
68680;SDS011;55836;49.858;6.756;2023-04-24T08:25:36;8.33;;;6.93;;
68680;SDS011;55836;49.858;6.756;2023-04-24T08:28:02;9.43;;;7.73;;
68680;SDS011;55836;49.858;6.756;2023-04-24T08:30:29;8.40;;;6.93;;
68680;SDS011;55836;49.858;6.756;2023-04-24T08:32:55;8.20;;;7.33;;
68680;SDS011;55836;49.858;6.756;2023-04-24T08:35:21;8.00;;;7.20;;
68680;SDS011;55836;49.858;6.756;2023-04-24T08:37:48;10.90;;;8.00;;
68680;SDS011;55836;49.858;6.756;2023-04-24T08:40:14;7.93;;;6.37;;
68680;SDS011;55836;49.858;6.756;2023-04-24T08:42:41;7.43;;;6.00;;
68680;SDS011;55836;49.858;6.756;2023-04-24T08:45:08;8.57;;;6.13;;
68680;SDS011;55836;49.858;6.756;2023-04-24T08:47:34;9.60;;;6.83;;
68680;SDS011;55836;49.858;6.756;2023-04-24T08:50:02;9.13;;;6.23;;
68680;SDS011;55836;49.858;6.756;2023-04-24T08:52:30;10.23;;;7.47;;
68680;SDS011;55836;49.858;6.756;2023-04-24T08:54:57;9.67;;;6.47;;
68680;SDS011;55836;49.858;6.756;2023-04-24T08:57:24;7.97;;;6.43;;
68680;SDS011;55836;49.858;6.756;2023-04-24T08:59:50;9.37;;;7.13;;
68680;SDS011;55836;49.858;6.756;2023-04-24T09:02:17;9.23;;;8.13;;
68680;SDS011;55836;49.858;6.756;2023-04-24T09:04:43;8.93;;;6.80;;
68680;SDS011;55836;49.858;6.756;2023-04-24T09:07:10;8.03;;;6.47;;
68680;SDS011;55836;49.858;6.756;2023-04-24T09:09:38;8.70;;;6.67;;
68680;SDS011;55836;49.858;6.756;2023-04-24T09:12:04;8.90;;;7.30;;
68680;SDS011;55836;49.858;6.756;2023-04-24T09:14:31;8.80;;;7.80;;
68680;SDS011;55836;49.858;6.756;2023-04-24T09:16:57;8.13;;;6.10;;
68680;SDS011;55836;49.858;6.756;2023-04-24T09:19:23;7.80;;;6.60;;
68680;SDS011;55836;49.858;6.756;2023-04-24T09:21:49;6.17;;;5.53;;
68680;SDS011;55836;49.858;6.756;2023-04-24T09:24:19;6.27;;;5.60;;
68680;SDS011;55836;49.858;6.756;2023-04-24T09:26:47;7.53;;;5.53;;
68680;SDS011;55836;49.858;6.756;2023-04-24T09:29:15;9.13;;;5.53;;
68680;SDS011;55836;49.858;6.756;2023-04-24T09:31:41;5.27;;;4.53;;
68680;SDS011;55836;49.858;6.756;2023-04-24T09:34:08;7.97;;;5.57;;
68680;SDS011;55836;49.858;6.756;2023-04-24T09:36:38;8.97;;;6.30;;
68680;SDS011;55836;49.858;6.756;2023-04-24T09:39:05;7.53;;;5.47;;
68680;SDS011;55836;49.858;6.756;2023-04-24T09:41:33;7.00;;;5.60;;
68680;SDS011;55836;49.858;6.756;2023-04-24T09:44:15;6.43;;;5.60;;
68680;SDS011;55836;49.858;6.756;2023-04-24T09:46:41;6.47;;;5.20;;
68680;SDS011;55836;49.858;6.756;2023-04-24T09:49:08;6.67;;;5.17;;
68680;SDS011;55836;49.858;6.756;2023-04-24T09:51:36;5.60;;;5.07;;
68680;SDS011;55836;49.858;6.756;2023-04-24T09:54:11;5.40;;;4.57;;
68680;SDS011;55836;49.858;6.756;2023-04-24T09:56:41;6.03;;;5.03;;
68680;SDS011;55836;49.858;6.756;2023-04-24T09:59:09;5.07;;;4.27;;
68680;SDS011;55836;49.858;6.756;2023-04-24T10:01:35;5.47;;;4.70;;
68680;SDS011;55836;49.858;6.756;2023-04-24T10:04:03;6.27;;;4.77;;
68680;SDS011;55836;49.858;6.756;2023-04-24T10:06:35;7.80;;;4.90;;
68680;SDS011;55836;49.858;6.756;2023-04-24T10:09:01;6.07;;;4.23;;
68680;SDS011;55836;49.858;6.756;2023-04-24T10:11:28;6.27;;;4.20;;
68680;SDS011;55836;49.858;6.756;2023-04-24T10:13:55;4.03;;;3.50;;
68680;SDS011;55836;49.858;6.756;2023-04-24T10:16:22;5.00;;;3.90;;
68680;SDS011;55836;49.858;6.756;2023-04-24T10:18:49;4.53;;;4.13;;
68680;SDS011;55836;49.858;6.756;2023-04-24T10:21:15;4.70;;;3.97;;
68680;SDS011;55836;49.858;6.756;2023-04-24T10:23:42;5.10;;;4.17;;
68680;SDS011;55836;49.858;6.756;2023-04-24T10:26:10;5.33;;;4.83;;
68680;SDS011;55836;49.858;6.756;2023-04-24T10:28:42;7.80;;;5.00;;
68680;SDS011;55836;49.858;6.756;2023-04-24T10:31:10;5.93;;;4.83;;
68680;SDS011;55836;49.858;6.756;2023-04-24T10:33:36;6.57;;;4.80;;
68680;SDS011;55836;49.858;6.756;2023-04-24T10:36:06;6.40;;;5.37;;
68680;SDS011;55836;49.858;6.756;2023-04-24T10:38:32;5.60;;;5.00;;
68680;SDS011;55836;49.858;6.756;2023-04-24T10:41:09;7.53;;;5.40;;
68680;SDS011;55836;49.858;6.756;2023-04-24T10:43:39;6.20;;;4.73;;
68680;SDS011;55836;49.858;6.756;2023-04-24T10:46:06;6.53;;;4.50;;
68680;SDS011;55836;49.858;6.756;2023-04-24T10:48:33;5.67;;;4.60;;
68680;SDS011;55836;49.858;6.756;2023-04-24T10:50:59;5.97;;;5.37;;
68680;SDS011;55836;49.858;6.756;2023-04-24T10:53:28;7.53;;;4.77;;
68680;SDS011;55836;49.858;6.756;2023-04-24T10:58:24;6.73;;;4.40;;
68680;SDS011;55836;49.858;6.756;2023-04-24T11:00:57;6.53;;;4.70;;
68680;SDS011;55836;49.858;6.756;2023-04-24T11:03:26;8.63;;;4.80;;
68680;SDS011;55836;49.858;6.756;2023-04-24T11:11:10;6.77;;;5.23;;
68680;SDS011;55836;49.858;6.756;2023-04-24T11:27:15;9.13;;;4.63;;
68680;SDS011;55836;49.858;6.756;2023-04-24T11:30:12;8.10;;;4.20;;
68680;SDS011;55836;49.858;6.756;2023-04-24T11:32:41;4.57;;;3.90;;
68680;SDS011;55836;49.858;6.756;2023-04-24T11:35:14;4.57;;;4.00;;
68680;SDS011;55836;49.858;6.756;2023-04-24T11:37:45;4.63;;;3.47;;
68680;SDS011;55836;49.858;6.756;2023-04-24T11:40:12;5.73;;;3.87;;
68680;SDS011;55836;49.858;6.756;2023-04-24T11:42:42;5.47;;;4.23;;
68680;SDS011;55836;49.858;6.756;2023-04-24T11:45:10;4.87;;;4.20;;
68680;SDS011;55836;49.858;6.756;2023-04-24T11:47:36;4.77;;;3.97;;
68680;SDS011;55836;49.858;6.756;2023-04-24T11:50:03;7.27;;;4.17;;
68680;SDS011;55836;49.858;6.756;2023-04-24T11:52:30;5.70;;;4.10;;
68680;SDS011;55836;49.858;6.756;2023-04-24T11:54:56;7.57;;;4.00;;
68680;SDS011;55836;49.858;6.756;2023-04-24T11:57:23;5.40;;;4.10;;
68680;SDS011;55836;49.858;6.756;2023-04-24T11:59:51;4.30;;;3.90;;
68680;SDS011;55836;49.858;6.756;2023-04-24T12:02:23;7.60;;;4.30;;
68680;SDS011;55836;49.858;6.756;2023-04-24T12:04:49;5.90;;;4.33;;
68680;SDS011;55836;49.858;6.756;2023-04-24T12:07:15;7.07;;;4.30;;
68680;SDS011;55836;49.858;6.756;2023-04-24T12:12:08;5.87;;;4.10;;
68680;SDS011;55836;49.858;6.756;2023-04-24T12:14:52;5.33;;;3.63;;
68680;SDS011;55836;49.858;6.756;2023-04-24T12:17:23;6.87;;;3.73;;
68680;SDS011;55836;49.858;6.756;2023-04-24T12:19:50;6.07;;;3.50;;
68680;SDS011;55836;49.858;6.756;2023-04-24T12:22:16;4.43;;;3.73;;
68680;SDS011;55836;49.858;6.756;2023-04-24T12:25:16;6.47;;;3.80;;
68680;SDS011;55836;49.858;6.756;2023-04-24T12:27:34;4.00;;;3.27;;
68680;SDS011;55836;49.858;6.756;2023-04-24T12:30:02;7.03;;;4.40;;
68680;SDS011;55836;49.858;6.756;2023-04-24T12:32:28;5.87;;;4.30;;
68680;SDS011;55836;49.858;6.756;2023-04-24T12:34:54;4.60;;;3.87;;
68680;SDS011;55836;49.858;6.756;2023-04-24T12:37:24;4.70;;;4.30;;
68680;SDS011;55836;49.858;6.756;2023-04-24T12:40:09;5.20;;;4.23;;
68680;SDS011;55836;49.858;6.756;2023-04-24T12:42:41;6.70;;;4.03;;
68680;SDS011;55836;49.858;6.756;2023-04-24T12:45:08;4.77;;;4.30;;
68680;SDS011;55836;49.858;6.756;2023-04-24T12:47:34;4.70;;;4.07;;
68680;SDS011;55836;49.858;6.756;2023-04-24T12:50:01;7.10;;;4.30;;
68680;SDS011;55836;49.858;6.756;2023-04-24T12:52:28;5.60;;;4.23;;
68680;SDS011;55836;49.858;6.756;2023-04-24T12:54:58;6.60;;;4.53;;
68680;SDS011;55836;49.858;6.756;2023-04-24T12:57:24;4.37;;;3.73;;
68680;SDS011;55836;49.858;6.756;2023-04-24T12:59:53;8.63;;;5.00;;
68680;SDS011;55836;49.858;6.756;2023-04-24T13:02:19;7.67;;;5.20;;
68680;SDS011;55836;49.858;6.756;2023-04-24T13:04:47;6.03;;;4.87;;
68680;SDS011;55836;49.858;6.756;2023-04-24T13:07:13;7.20;;;4.47;;
68680;SDS011;55836;49.858;6.756;2023-04-24T13:09:40;5.63;;;4.63;;
68680;SDS011;55836;49.858;6.756;2023-04-24T13:12:06;8.13;;;4.70;;
68680;SDS011;55836;49.858;6.756;2023-04-24T13:14:33;6.57;;;4.30;;
68680;SDS011;55836;49.858;6.756;2023-04-24T13:16:59;5.80;;;4.70;;
68680;SDS011;55836;49.858;6.756;2023-04-24T13:19:25;6.00;;;4.23;;
68680;SDS011;55836;49.858;6.756;2023-04-24T13:21:52;5.57;;;4.63;;
68680;SDS011;55836;49.858;6.756;2023-04-24T13:24:18;6.57;;;4.40;;
68680;SDS011;55836;49.858;6.756;2023-04-24T13:26:45;5.10;;;4.43;;
68680;SDS011;55836;49.858;6.756;2023-04-24T13:29:11;4.87;;;4.00;;
68680;SDS011;55836;49.858;6.756;2023-04-24T13:31:37;5.03;;;4.17;;
68680;SDS011;55836;49.858;6.756;2023-04-24T13:34:03;6.83;;;4.03;;
68680;SDS011;55836;49.858;6.756;2023-04-24T13:36:29;5.40;;;4.33;;
68680;SDS011;55836;49.858;6.756;2023-04-24T13:38:56;5.47;;;4.07;;
68680;SDS011;55836;49.858;6.756;2023-04-24T13:41:22;6.60;;;4.53;;
68680;SDS011;55836;49.858;6.756;2023-04-24T13:43:48;5.70;;;4.37;;
68680;SDS011;55836;49.858;6.756;2023-04-24T13:46:14;5.40;;;3.80;;
68680;SDS011;55836;49.858;6.756;2023-04-24T13:48:40;5.43;;;4.90;;
68680;SDS011;55836;49.858;6.756;2023-04-24T13:51:06;6.80;;;4.07;;
68680;SDS011;55836;49.858;6.756;2023-04-24T13:53:32;6.63;;;4.47;;
68680;SDS011;55836;49.858;6.756;2023-04-24T13:56:01;7.27;;;3.67;;
68680;SDS011;55836;49.858;6.756;2023-04-24T13:58:27;6.23;;;4.60;;
68680;SDS011;55836;49.858;6.756;2023-04-24T14:00:53;6.43;;;4.00;;
68680;SDS011;55836;49.858;6.756;2023-04-24T14:03:19;4.90;;;4.27;;
68680;SDS011;55836;49.858;6.756;2023-04-24T14:05:45;5.27;;;4.67;;
68680;SDS011;55836;49.858;6.756;2023-04-24T14:08:11;5.10;;;4.00;;
68680;SDS011;55836;49.858;6.756;2023-04-24T14:10:37;5.40;;;4.00;;
68680;SDS011;55836;49.858;6.756;2023-04-24T14:13:03;6.97;;;4.03;;
68680;SDS011;55836;49.858;6.756;2023-04-24T14:15:30;6.27;;;4.30;;
68680;SDS011;55836;49.858;6.756;2023-04-24T14:17:56;5.43;;;4.20;;
68680;SDS011;55836;49.858;6.756;2023-04-24T14:20:22;5.67;;;4.33;;
68680;SDS011;55836;49.858;6.756;2023-04-24T14:22:48;7.90;;;3.97;;
68680;SDS011;55836;49.858;6.756;2023-04-24T14:25:15;4.93;;;3.80;;
68680;SDS011;55836;49.858;6.756;2023-04-24T14:27:41;5.10;;;4.37;;
68680;SDS011;55836;49.858;6.756;2023-04-24T14:30:07;4.80;;;4.30;;
68680;SDS011;55836;49.858;6.756;2023-04-24T14:32:33;5.20;;;4.20;;
68680;SDS011;55836;49.858;6.756;2023-04-24T14:35:00;4.87;;;3.40;;
68680;SDS011;55836;49.858;6.756;2023-04-24T14:37:26;5.67;;;4.40;;
68680;SDS011;55836;49.858;6.756;2023-04-24T14:39:52;6.40;;;4.33;;
68680;SDS011;55836;49.858;6.756;2023-04-24T14:42:18;5.30;;;4.23;;
68680;SDS011;55836;49.858;6.756;2023-04-24T14:44:44;7.37;;;4.90;;
68680;SDS011;55836;49.858;6.756;2023-04-24T14:47:10;5.43;;;4.07;;
68680;SDS011;55836;49.858;6.756;2023-04-24T14:49:36;5.10;;;4.07;;
68680;SDS011;55836;49.858;6.756;2023-04-24T14:52:02;5.53;;;4.53;;
68680;SDS011;55836;49.858;6.756;2023-04-24T14:54:28;5.47;;;4.00;;
68680;SDS011;55836;49.858;6.756;2023-04-24T14:56:55;5.77;;;3.37;;
68680;SDS011;55836;49.858;6.756;2023-04-24T14:59:26;4.20;;;3.37;;
68680;SDS011;55836;49.858;6.756;2023-04-24T15:01:53;5.63;;;3.30;;
68680;SDS011;55836;49.858;6.756;2023-04-24T15:04:23;6.03;;;3.20;;
68680;SDS011;55836;49.858;6.756;2023-04-24T15:06:50;4.40;;;3.37;;